Time;durP1;ratioP1;P1;durP2;ratioP2;P2;SDS_P1;SDS_P2;PMS_P1;PMS_P2;Temp;Humidity;BMP_temperature;BMP_pressure;BME280_temperature;BME280_humidity;BME280_pressure;Samples;Min_cycle;Max_cycle;Signal;HPM_P1;HPM_P2
2023/09/23 00:02:15;;;;;;;;;;;;;;;24.65;48.54;99515.53;5095587;28;20003;-76
2023/09/23 00:04:40;;;;;;;;;;;;;;;24.60;48.35;99518.22;5077276;28;19951;-77
2023/09/23 00:07:05;;;;;;;;;;;;;;;24.55;48.41;99513.66;5077330;28;19912;-78
2023/09/23 00:09:31;;;;;;;;;;;;;;;24.50;48.77;99512.81;5095582;28;19912;-78
2023/09/23 00:11:57;;;;;;;;;;;;;;;24.48;48.63;99514.97;5095090;28;19908;-78
2023/09/23 00:14:22;;;;;;;;;;;;;;;24.47;48.70;99511.44;5077309;28;19912;-76
2023/09/23 00:16:47;;;;;;;;;;;;;;;24.47;49.13;99516.03;5095292;28;19916;-76
2023/09/23 00:19:13;;;;;;;;;;;;;;;24.46;49.30;99523.34;5095138;28;20309;-76
2023/09/23 00:21:39;;;;;;;;;;;;;;;24.42;49.11;99521.44;5076913;28;19927;-77
2023/09/23 00:24:05;;;;;;;;;;;;;;;24.42;49.16;99516.84;5095282;28;19912;-76
2023/09/23 00:26:32;;;;;;;;;;;;;;;24.37;49.26;99525.75;5095395;28;19912;-77
2023/09/23 00:28:57;;;;;;;;;;;;;;;24.35;49.04;99527.09;5095247;28;20293;-77
2023/09/23 00:31:24;;;;;;;;;;;;;;;24.33;49.44;99518.47;5095018;28;19919;-77
2023/09/23 00:33:49;;;;;;;;;;;;;;;24.33;49.52;99534.66;5094808;28;19912;-77
2023/09/23 00:36:14;;;;;;;;;;;;;;;24.33;49.16;99529.25;5095124;28;19920;-77
2023/09/23 00:38:40;;;;;;;;;;;;;;;24.30;49.21;99530.59;5094812;28;19916;-77
2023/09/23 00:41:08;;;;;;;;;;;;;;;24.28;48.67;99529.25;5076572;28;19928;-76
2023/09/23 00:43:34;;;;;;;;;;;;;;;24.23;49.05;99526.53;5094880;28;19915;-77
2023/09/23 00:46:00;;;;;;;;;;;;;;;24.20;49.02;99529.75;5076296;28;19949;-78
2023/09/23 00:48:25;;;;;;;;;;;;;;;24.17;49.22;99520.31;5076648;28;19912;-77
2023/09/23 00:50:52;;;;;;;;;;;;;;;24.15;49.07;99518.97;5076448;28;19919;-77
2023/09/23 00:53:18;;;;;;;;;;;;;;;24.08;48.97;99516.53;5095117;28;19916;-77
2023/09/23 00:55:52;;;;;;;;;;;;;;;24.05;48.95;99523.25;5094315;28;19965;-78
2023/09/23 00:58:20;;;;;;;;;;;;;;;24.01;48.91;99516.78;5094246;28;19912;-77
2023/09/23 01:00:48;;;;;;;;;;;;;;;23.97;48.50;99515.69;5094484;28;19994;-77
2023/09/23 01:03:15;;;;;;;;;;;;;;;23.96;48.71;99524.84;5093569;28;20399;-77
2023/09/23 01:05:40;;;;;;;;;;;;;;;23.94;49.05;99523.50;5094262;28;19912;-77
2023/09/23 01:08:20;;;;;;;;;;;;;;;23.95;49.35;99527.81;5093946;28;20453;-76
2023/09/23 01:10:47;;;;;;;;;;;;;;;23.97;49.07;99525.66;5094164;28;19915;-78
2023/09/23 01:13:12;;;;;;;;;;;;;;;23.97;48.46;99515.69;5094124;28;20402;-77
2023/09/23 01:15:40;;;;;;;;;;;;;;;23.96;48.78;99519.47;5094207;28;19987;-77
2023/09/23 01:18:08;;;;;;;;;;;;;;;23.91;48.78;99526.72;5093971;28;19999;-77
2023/09/23 01:20:37;;;;;;;;;;;;;;;23.85;48.63;99525.91;5093785;28;20358;-77
2023/09/23 01:23:04;;;;;;;;;;;;;;;23.78;48.60;99530.72;5093618;28;19912;-76
2023/09/23 01:25:29;;;;;;;;;;;;;;;23.69;49.24;99524.19;5093913;28;19916;-77
2023/09/23 01:27:55;;;;;;;;;;;;;;;23.64;49.22;99526.88;5094645;28;19912;-78
2023/09/23 01:30:21;;;;;;;;;;;;;;;23.59;49.38;99524.16;5094833;28;19912;-78
2023/09/23 01:32:47;;;;;;;;;;;;;;;23.59;49.07;99524.16;5096127;28;19912;-76
2023/09/23 01:35:12;;;;;;;;;;;;;;;23.57;49.26;99526.31;5093731;28;19918;-77
2023/09/23 01:37:38;;;;;;;;;;;;;;;23.54;49.23;99527.63;5093659;28;19912;-76
2023/09/23 01:40:05;;;;;;;;;;;;;;;23.48;49.37;99527.88;5093408;28;19923;-77
2023/09/23 01:42:33;;;;;;;;;;;;;;;23.44;49.67;99538.34;5093513;28;19955;-78
2023/09/23 01:44:58;;;;;;;;;;;;;;;23.40;49.56;99538.06;5093346;28;19935;-77
2023/09/23 01:47:23;;;;;;;;;;;;;;;23.34;49.73;99536.41;5093654;28;20365;-78
2023/09/23 01:49:49;;;;;;;;;;;;;;;23.30;49.43;99540.72;5093616;28;19916;-77
2023/09/23 01:52:16;;;;;;;;;;;;;;;23.26;49.54;99536.91;5093381;28;19912;-77
2023/09/23 01:54:44;;;;;;;;;;;;;;;23.21;49.56;99539.59;5093394;28;19920;-77
2023/09/23 01:57:12;;;;;;;;;;;;;;;23.17;50.13;99529.59;5093012;28;20416;-78
2023/09/23 01:59:40;;;;;;;;;;;;;;;23.03;50.46;99540.78;5092940;28;19937;-77
2023/09/23 02:02:06;;;;;;;;;;;;;;;22.94;50.35;99533.47;5074646;28;19912;-78
2023/09/23 02:04:31;;;;;;;;;;;;;;;22.90;50.63;99532.34;5093079;28;19912;-77
2023/09/23 02:06:56;;;;;;;;;;;;;;;22.85;50.27;99522.38;5092979;28;20290;-77
2023/09/23 02:09:22;;;;;;;;;;;;;;;22.89;50.74;99522.66;5074728;28;20309;-77
2023/09/23 02:11:48;;;;;;;;;;;;;;;22.95;49.94;99521.63;5093159;28;20007;-77
2023/09/23 02:14:13;;;;;;;;;;;;;;;22.95;50.05;99525.13;5093021;28;19912;-77
2023/09/23 02:16:40;;;;;;;;;;;;;;;22.95;50.13;99519.75;5092856;28;20392;-77
2023/09/23 02:19:05;;;;;;;;;;;;;;;22.92;50.26;99520.25;5074426;28;19985;-77
2023/09/23 02:21:30;;;;;;;;;;;;;;;22.88;50.64;99529.91;5092450;28;20372;-78
2023/09/23 02:23:58;;;;;;;;;;;;;;;22.83;50.54;99533.38;5092626;28;19912;-77
2023/09/23 02:26:24;;;;;;;;;;;;;;;22.84;50.51;99528.81;5092663;28;20375;-76
2023/09/23 02:28:49;;;;;;;;;;;;;;;22.87;50.53;99524.78;5074445;28;19912;-78
2023/09/23 02:31:19;;;;;;;;;;;;;;;22.89;49.97;99530.72;5092583;28;19908;-78
2023/09/23 02:33:44;;;;;;;;;;;;;;;22.93;50.23;99526.44;5092418;28;20008;-77
2023/09/23 02:36:13;;;;;;;;;;;;;;;22.94;50.73;99536.97;5092270;28;20010;-78
2023/09/23 02:38:38;;;;;;;;;;;;;;;22.89;50.65;99542.31;5092231;28;19916;-78
2023/09/23 02:41:06;;;;;;;;;;;;;;;22.85;50.38;99541.22;5092321;28;20003;-77
2023/09/23 02:43:32;;;;;;;;;;;;;;;22.83;50.58;99544.16;5092277;28;19915;-77
2023/09/23 02:46:00;;;;;;;;;;;;;;;22.86;50.80;99542.03;5092343;28;19922;-78
2023/09/23 02:48:26;;;;;;;;;;;;;;;22.87;50.79;99541.75;5092359;28;19918;-78
2023/09/23 02:50:51;;;;;;;;;;;;;;;22.90;50.81;99540.44;5092053;28;20006;-78
2023/09/23 02:53:16;;;;;;;;;;;;;;;22.88;50.83;99548.75;5073890;28;19916;-76
2023/09/23 02:55:42;;;;;;;;;;;;;;;22.87;51.06;99543.66;5092189;28;19920;-77
2023/09/23 02:58:08;;;;;;;;;;;;;;;22.86;50.64;99542.84;5092344;28;19919;-78
2023/09/23 03:00:34;;;;;;;;;;;;;;;22.81;50.59;99546.28;5092464;28;20007;-78
2023/09/23 03:03:06;;;;;;;;;;;;;;;22.79;51.01;99542.22;5092307;28;20001;-77
2023/09/23 03:05:38;;;;;;;;;;;;;;;22.81;50.49;99540.91;5092173;28;19919;-76
2023/09/23 03:08:04;;;;;;;;;;;;;;;22.85;50.72;99546.59;5092325;28;19919;-79
2023/09/23 03:10:39;;;;;;;;;;;;;;;22.87;50.61;99551.72;5092380;28;19919;-77
2023/09/23 03:13:05;;;;;;;;;;;;;;;22.86;50.81;99547.41;5092161;28;19912;-76
2023/09/23 03:15:41;;;;;;;;;;;;;;;22.79;50.82;99542.22;5092043;28;20293;-76
2023/09/23 03:18:07;;;;;;;;;;;;;;;22.79;50.63;99552.97;5092084;28;19912;-78
2023/09/23 03:20:34;;;;;;;;;;;;;;;22.79;51.21;99552.97;5073811;28;19923;-78
2023/09/23 03:22:59;;;;;;;;;;;;;;;22.82;50.74;99558.69;5092192;28;20431;-78
2023/09/23 03:25:25;;;;;;;;;;;;;;;22.82;50.68;99550.63;5094836;28;19951;-76
2023/09/23 03:27:51;;;;;;;;;;;;;;;22.82;50.45;99556.00;5080229;28;19999;-78
2023/09/23 03:30:17;;;;;;;;;;;;;;;22.81;51.02;99557.06;5080264;28;19912;-78
2023/09/23 03:32:42;;;;;;;;;;;;;;;22.78;51.03;99552.16;5098552;28;20311;-77
2023/09/23 03:35:13;;;;;;;;;;;;;;;22.73;50.82;99562.91;5080015;28;19912;-77
2023/09/23 03:37:39;;;;;;;;;;;;;;;22.65;50.63;99563.38;5098637;28;19916;-78
2023/09/23 03:40:07;;;;;;;;;;;;;;;22.62;50.48;99563.88;5098707;28;20007;-78
2023/09/23 03:42:32;;;;;;;;;;;;;;;22.60;51.42;99565.19;5098850;28;20304;-76
2023/09/23 03:44:58;;;;;;;;;;;;;;;22.52;50.95;99567.28;5098291;28;19912;-77
2023/09/23 03:47:24;;;;;;;;;;;;;;;22.53;50.94;99573.47;5098297;28;20378;-77
2023/09/23 03:49:50;;;;;;;;;;;;;;;22.54;50.86;99580.50;5098404;28;19919;-75
2023/09/23 03:52:16;;;;;;;;;;;;;;;22.49;51.36;99578.56;5098405;28;19912;-78
2023/09/23 03:54:41;;;;;;;;;;;;;;;22.43;51.32;99576.91;5098360;28;20226;-76
2023/09/23 03:57:07;;;;;;;;;;;;;;;22.42;51.09;99575.28;5080215;28;19962;-77
2023/09/23 03:59:33;;;;;;;;;;;;;;;22.42;51.08;99577.16;5098165;28;19916;-76
2023/09/23 04:01:59;;;;;;;;;;;;;;;22.35;51.45;99573.84;5098540;28;19919;-76
2023/09/23 04:04:24;;;;;;;;;;;;;;;22.29;51.22;99581.03;5098270;28;20385;-77
2023/09/23 04:06:50;;;;;;;;;;;;;;;22.24;51.52;99588.22;5079797;28;19912;-77
2023/09/23 04:09:16;;;;;;;;;;;;;;;22.14;52.22;99584.38;5098055;28;19912;-76
2023/09/23 04:11:43;;;;;;;;;;;;;;;22.09;52.19;99592.38;5079514;28;20484;-77
2023/09/23 04:14:08;;;;;;;;;;;;;;;22.08;52.23;99588.06;5098497;28;19919;-78
2023/09/23 04:16:34;;;;;;;;;;;;;;;22.04;51.93;99597.72;5080073;28;19912;-78
2023/09/23 04:18:59;;;;;;;;;;;;;;;21.99;51.71;99605.69;5098047;28;20362;-78
2023/09/23 04:21:25;;;;;;;;;;;;;;;21.85;52.79;99599.06;5098029;28;20363;-78
2023/09/23 04:23:52;;;;;;;;;;;;;;;21.80;53.05;99604.38;5098027;28;19943;-77
2023/09/23 04:26:20;;;;;;;;;;;;;;;21.77;52.91;99602.19;5098115;28;20402;-77
2023/09/23 04:28:47;;;;;;;;;;;;;;;21.80;52.56;99607.88;5079876;28;19914;-78
2023/09/23 04:31:13;;;;;;;;;;;;;;;21.83;51.95;99609.25;5097954;28;19954;-78
2023/09/23 04:33:39;;;;;;;;;;;;;;;21.77;52.21;99610.25;5097990;28;19912;-77
2023/09/23 04:36:09;;;;;;;;;;;;;;;21.74;52.46;99616.94;5078898;28;19920;-77
2023/09/23 04:38:34;;;;;;;;;;;;;;;21.74;52.42;99613.44;5094070;28;19927;-78
2023/09/23 04:41:00;;;;;;;;;;;;;;;21.72;52.68;99619.06;5094788;28;19912;-78
2023/09/23 04:43:25;;;;;;;;;;;;;;;21.76;52.40;99622.06;5094619;28;19964;-78
2023/09/23 04:45:51;;;;;;;;;;;;;;;21.74;52.67;99629.56;5094798;28;19912;-76
2023/09/23 04:48:18;;;;;;;;;;;;;;;21.70;52.63;99628.44;5094969;28;20008;-76
2023/09/23 04:50:46;;;;;;;;;;;;;;;21.67;52.37;99624.38;5094613;28;20466;-77
2023/09/23 04:53:11;;;;;;;;;;;;;;;21.66;52.10;99635.38;5094697;28;19919;-78
2023/09/23 04:55:37;;;;;;;;;;;;;;;21.66;51.91;99635.38;5094320;28;19912;-77
2023/09/23 04:58:02;;;;;;;;;;;;;;;21.66;51.72;99630.81;5094511;28;19977;-77
2023/09/23 05:00:32;;;;;;;;;;;;;;;21.62;52.81;99629.66;5094302;28;19959;-78
2023/09/23 05:02:57;;;;;;;;;;;;;;;21.63;52.32;99631.28;5076174;28;19947;-76
2023/09/23 05:05:23;;;;;;;;;;;;;;;21.62;52.62;99626.97;5094422;28;19966;-78
2023/09/23 05:07:48;;;;;;;;;;;;;;;21.64;52.42;99632.94;5094144;28;19917;-76
2023/09/23 05:10:13;;;;;;;;;;;;;;;21.66;52.69;99627.31;5094140;28;19911;-77
2023/09/23 05:12:39;;;;;;;;;;;;;;;21.65;53.28;99620.31;5094046;28;19919;-78
2023/09/23 05:15:05;;;;;;;;;;;;;;;21.67;52.12;99626.25;5093915;28;19912;-76
2023/09/23 05:17:30;;;;;;;;;;;;;;;21.71;52.48;99624.69;5094069;28;19999;-76
2023/09/23 05:19:55;;;;;;;;;;;;;;;21.76;51.91;99627.44;5093945;28;19960;-78
2023/09/23 05:22:21;;;;;;;;;;;;;;;21.78;52.39;99631.50;5093838;28;19912;-78
2023/09/23 05:24:50;;;;;;;;;;;;;;;21.83;52.51;99633.44;5094153;28;19912;-78
2023/09/23 05:27:16;;;;;;;;;;;;;;;21.88;52.37;99633.50;5093918;28;19919;-78
2023/09/23 05:29:44;;;;;;;;;;;;;;;21.89;52.56;99635.94;5093857;28;19912;-78
2023/09/23 05:32:10;;;;;;;;;;;;;;;21.93;52.30;99638.94;5094047;28;19992;-78
2023/09/23 05:34:38;;;;;;;;;;;;;;;21.98;52.59;99643.56;5093702;28;19920;-78
2023/09/23 05:37:03;;;;;;;;;;;;;;;22.04;52.39;99642.59;5093595;28;19983;-76
2023/09/23 05:39:28;;;;;;;;;;;;;;;22.08;52.19;99641.84;5075478;28;19927;-78
2023/09/23 05:41:54;;;;;;;;;;;;;;;22.13;52.47;99651.84;5093562;28;19919;-76
2023/09/23 05:44:20;;;;;;;;;;;;;;;22.17;52.60;99645.72;5093537;28;20360;-77
2023/09/23 05:46:45;;;;;;;;;;;;;;;22.25;52.99;99649.03;5093607;28;19912;-76
2023/09/23 05:49:14;;;;;;;;;;;;;;;22.29;52.40;99656.34;5093108;28;19938;-78
2023/09/23 05:51:39;;;;;;;;;;;;;;;22.39;52.39;99661.06;5093269;28;19943;-77
2023/09/23 05:54:05;;;;;;;;;;;;;;;22.47;51.94;99655.22;5093256;28;19954;-77
2023/09/23 05:56:30;;;;;;;;;;;;;;;22.54;52.26;99653.16;5093062;28;19908;-77
2023/09/23 05:58:55;;;;;;;;;;;;;;;22.60;51.87;99654.81;5074934;28;19920;-78
2023/09/23 06:01:21;;;;;;;;;;;;;;;22.69;51.68;99665.94;5093279;28;20369;-77
2023/09/23 06:03:47;;;;;;;;;;;;;;;22.77;51.86;99652.84;5093534;28;19912;-77
2023/09/23 06:06:14;;;;;;;;;;;;;;;22.88;51.62;99661.84;5093228;28;19957;-75
2023/09/23 06:08:39;;;;;;;;;;;;;;;22.99;51.42;99665.44;5093238;28;19918;-78
2023/09/23 06:11:10;;;;;;;;;;;;;;;23.07;51.65;99668.50;5074954;28;20407;-77
2023/09/23 06:13:35;;;;;;;;;;;;;;;23.13;51.94;99670.16;5093033;28;19912;-77
2023/09/23 06:16:04;;;;;;;;;;;;;;;23.18;51.39;99668.59;5075142;28;20385;-77
2023/09/23 06:18:30;;;;;;;;;;;;;;;23.27;51.55;99672.44;5093164;28;20312;-77
2023/09/23 06:21:02;;;;;;;;;;;;;;;23.34;51.62;99675.72;5079134;28;19919;-77
2023/09/23 06:23:27;;;;;;;;;;;;;;;23.42;51.18;99670.66;5079762;28;19918;-76
2023/09/23 06:25:57;;;;;;;;;;;;;;;23.48;51.54;99673.38;5092839;28;19912;-77
2023/09/23 06:28:23;;;;;;;;;;;;;;;23.54;51.58;99677.75;5092596;28;19919;-77
2023/09/23 06:30:48;;;;;;;;;;;;;;;23.59;51.34;99684.00;5092435;28;19912;-77
2023/09/23 06:33:13;;;;;;;;;;;;;;;23.66;51.22;99679.19;5092340;28;19915;-77
2023/09/23 06:35:39;;;;;;;;;;;;;;;23.74;51.16;99680.59;5092274;28;19976;-77
2023/09/23 06:38:04;;;;;;;;;;;;;;;23.81;51.00;99678.50;5092363;28;19912;-78
2023/09/23 06:40:29;;;;;;;;;;;;;;;23.90;50.92;99678.81;5092231;28;19984;-76
2023/09/23 06:42:55;;;;;;;;;;;;;;;23.96;51.10;99675.06;5092298;28;19912;-76
2023/09/23 06:45:20;;;;;;;;;;;;;;;24.04;51.22;99669.19;5074141;28;19912;-76
2023/09/23 06:47:46;;;;;;;;;;;;;;;24.08;50.78;99678.38;5092660;28;19919;-77
2023/09/23 06:50:11;;;;;;;;;;;;;;;24.15;50.46;99680.81;5092567;28;19994;-78
2023/09/23 06:52:36;;;;;;;;;;;;;;;24.20;50.46;99678.16;5093394;28;20399;-77
2023/09/23 06:55:02;;;;;;;;;;;;;;;24.27;50.30;99682.25;5093392;28;19912;-79
2023/09/23 06:57:27;;;;;;;;;;;;;;;24.35;51.04;99689.84;5092680;28;19904;-77
2023/09/23 06:59:53;;;;;;;;;;;;;;;24.42;50.54;99677.97;5091915;28;19973;-78
2023/09/23 07:02:19;;;;;;;;;;;;;;;24.50;50.53;99678.28;5092124;28;20377;-78
2023/09/23 07:04:45;;;;;;;;;;;;;;;24.56;50.35;99684.53;5092007;28;19912;-78
2023/09/23 07:07:10;;;;;;;;;;;;;;;24.63;50.22;99682.38;5092177;28;20457;-78
2023/09/23 07:09:35;;;;;;;;;;;;;;;24.69;49.89;99690.22;5074223;28;20062;-78
2023/09/23 07:12:00;;;;;;;;;;;;;;;24.76;49.88;99694.56;5092034;28;19927;-77
2023/09/23 07:14:26;;;;;;;;;;;;;;;24.86;49.30;99699.97;5091992;28;19919;-78
2023/09/23 07:16:51;;;;;;;;;;;;;;;24.92;49.62;99693.50;5073869;28;19961;-78
2023/09/23 07:19:16;;;;;;;;;;;;;;;25.02;48.96;99693.53;5092048;28;20013;-76
2023/09/23 07:21:41;;;;;;;;;;;;;;;25.12;48.34;99690.03;5073867;28;19916;-78
2023/09/23 07:24:07;;;;;;;;;;;;;;;25.19;49.08;99693.28;5092061;28;19978;-76
2023/09/23 07:26:32;;;;;;;;;;;;;;;25.26;49.14;99689.22;5092168;28;19939;-77
2023/09/23 07:28:57;;;;;;;;;;;;;;;25.34;48.99;99691.41;5092131;28;19916;-76
2023/09/23 07:31:23;;;;;;;;;;;;;;;25.43;48.51;99690.84;5092103;28;19934;-76
2023/09/23 07:33:48;;;;;;;;;;;;;;;25.51;48.45;99690.31;5091959;28;19955;-75
2023/09/23 07:36:14;;;;;;;;;;;;;;;25.58;48.21;99688.94;5091769;28;19920;-76
2023/09/23 07:38:39;;;;;;;;;;;;;;;25.66;48.62;99684.91;5091647;28;19920;-76
2023/09/23 07:41:05;;;;;;;;;;;;;;;25.72;48.50;99683.81;5091804;28;19912;-76
2023/09/23 07:43:31;;;;;;;;;;;;;;;25.79;48.31;99683.53;5091780;28;19912;-76
2023/09/23 07:45:57;;;;;;;;;;;;;;;25.87;48.05;99685.66;5091622;28;20369;-77
2023/09/23 07:48:22;;;;;;;;;;;;;;;25.97;47.50;99688.34;5091841;28;19961;-77
2023/09/23 07:50:47;;;;;;;;;;;;;;;26.05;47.71;99689.69;5091648;28;19904;-76
2023/09/23 07:53:13;;;;;;;;;;;;;;;26.13;47.24;99691.81;5091585;28;19968;-77
2023/09/23 07:55:38;;;;;;;;;;;;;;;26.19;47.44;99693.44;5091565;28;19924;-77
2023/09/23 07:58:03;;;;;;;;;;;;;;;26.24;46.86;99685.28;5091865;28;19904;-77
2023/09/23 08:00:29;;;;;;;;;;;;;;;26.31;46.93;99679.56;5091573;28;19966;-77
2023/09/23 08:02:54;;;;;;;;;;;;;;;26.34;46.69;99677.16;5091769;28;19916;-77
2023/09/23 08:05:23;;;;;;;;;;;;;;;26.39;46.53;99673.59;5092060;28;19919;-76
2023/09/23 08:07:49;;;;;;;;;;;;;;;26.48;46.81;99677.34;5091639;28;20407;-77
2023/09/23 08:10:15;;;;;;;;;;;;;;;26.57;46.42;99681.88;5091643;28;19916;-77
2023/09/23 08:12:41;;;;;;;;;;;;;;;26.67;46.08;99677.50;5094558;28;19990;-77
2023/09/23 08:15:07;;;;;;;;;;;;;;;26.77;46.14;99680.19;5095090;28;19959;-77
2023/09/23 08:17:33;;;;;;;;;;;;;;;26.87;46.32;99674.69;5095035;28;19918;-77
2023/09/23 08:19:59;;;;;;;;;;;;;;;26.95;45.57;99674.09;5095194;28;19999;-77
2023/09/23 08:22:24;;;;;;;;;;;;;;;27.04;45.41;99667.00;5095101;28;19912;-76
2023/09/23 08:24:50;;;;;;;;;;;;;;;27.15;45.54;99673.13;5095062;28;20453;-77
2023/09/23 08:27:15;;;;;;;;;;;;;;;27.27;45.53;99668.16;5076951;28;19912;-77
2023/09/23 08:29:40;;;;;;;;;;;;;;;27.37;45.21;99672.66;5076852;28;19930;-77
2023/09/23 08:32:05;;;;;;;;;;;;;;;27.50;45.10;99669.31;5095039;28;19949;-77
2023/09/23 08:34:31;;;;;;;;;;;;;;;27.60;44.88;99668.41;5094980;28;19908;-78
2023/09/23 08:36:57;;;;;;;;;;;;;;;27.68;44.46;99659.69;5094766;28;19943;-76
2023/09/23 08:39:22;;;;;;;;;;;;;;;27.80;44.57;99663.59;5094689;28;19917;-76
2023/09/23 08:41:51;;;;;;;;;;;;;;;27.92;44.30;99668.63;5094665;28;20407;-76
2023/09/23 08:44:19;;;;;;;;;;;;;;;28.02;43.64;99654.94;5094740;28;19962;-76
2023/09/23 08:46:47;;;;;;;;;;;;;;;28.18;43.71;99658.25;5094774;28;19959;-77
2023/09/23 08:49:13;;;;;;;;;;;;;;;28.29;43.24;99659.81;5095221;28;20383;-75
2023/09/23 08:51:40;;;;;;;;;;;;;;;28.44;43.63;99662.31;5094608;28;19965;-78
2023/09/23 08:54:07;;;;;;;;;;;;;;;28.57;43.20;99657.25;5094627;28;19913;-77
2023/09/23 08:56:33;;;;;;;;;;;;;;;28.67;43.33;99649.75;5094654;28;19908;-78
2023/09/23 08:58:58;;;;;;;;;;;;;;;28.82;42.45;99653.34;5094429;28;19916;-77
2023/09/23 09:01:24;;;;;;;;;;;;;;;28.93;42.84;99652.09;5094400;28;19934;-76
2023/09/23 09:03:50;;;;;;;;;;;;;;;29.04;41.90;99648.94;5076090;28;20388;-77
2023/09/23 09:06:16;;;;;;;;;;;;;;;29.19;41.75;99641.63;5094411;28;19912;-77
2023/09/23 09:08:42;;;;;;;;;;;;;;;29.34;42.03;99633.22;5094155;28;19912;-77
2023/09/23 09:11:09;;;;;;;;;;;;;;;29.51;41.17;99638.09;5094250;28;19912;-77
2023/09/23 09:13:35;;;;;;;;;;;;;;;29.62;40.12;99632.16;5094036;28;19912;-77
2023/09/23 09:16:03;;;;;;;;;;;;;;;29.80;41.20;99630.47;5093957;28;20388;-77
2023/09/23 09:18:29;;;;;;;;;;;;;;;29.95;39.69;99629.34;5093938;28;19912;-76
2023/09/23 09:20:55;;;;;;;;;;;;;;;30.08;40.82;99617.66;5075679;28;19958;-77
2023/09/23 09:23:20;;;;;;;;;;;;;;;30.24;40.23;99620.88;5093291;28;20296;-76
2023/09/23 09:25:47;;;;;;;;;;;;;;;30.41;39.94;99621.03;5094095;28;19966;-76
2023/09/23 09:28:12;;;;;;;;;;;;;;;30.43;39.06;99607.91;5094144;28;19912;-76
2023/09/23 09:30:38;;;;;;;;;;;;;;;30.56;39.03;99615.25;5093746;28;20290;-78
2023/09/23 09:33:06;;;;;;;;;;;;;;;30.69;38.95;99616.34;5093688;28;20407;-78
2023/09/23 09:35:33;;;;;;;;;;;;;;;30.82;38.33;99611.94;5093499;28;20331;-77
2023/09/23 09:38:05;;;;;;;;;;;;;;;31.02;39.01;99619.59;5093431;28;20095;-76
2023/09/23 09:40:31;;;;;;;;;;;;;;;31.21;37.47;99605.78;5093395;28;19923;-77
2023/09/23 09:42:59;;;;;;;;;;;;;;;31.34;37.53;99606.84;5093346;28;19912;-78
2023/09/23 09:45:26;;;;;;;;;;;;;;;31.47;37.35;99598.56;5093430;28;19912;-78
2023/09/23 09:47:53;;;;;;;;;;;;;;;31.63;37.47;99595.41;5093297;28;19918;-77
2023/09/23 09:50:18;;;;;;;;;;;;;;;31.75;37.06;99593.69;5093548;28;20222;-77
2023/09/23 09:52:44;;;;;;;;;;;;;;;31.89;37.58;99583.44;5093338;28;20497;-78
2023/09/23 09:55:10;;;;;;;;;;;;;;;32.08;37.23;99587.84;5091872;28;20020;-76
2023/09/23 09:57:35;;;;;;;;;;;;;;;32.19;36.81;99578.22;5093348;28;20340;-77
2023/09/23 10:00:15;;;;;;;;;;;;;;;32.35;36.36;99576.66;5093256;28;19916;-77
2023/09/23 10:02:41;;;;;;;;;;;;;;;32.59;36.90;99572.63;5075157;28;19912;-77
2023/09/23 10:05:07;;;;;;;;;;;;;;;32.75;35.31;99569.06;5074804;28;19912;-78
2023/09/23 10:07:48;;;;;;;;;;;;;;;32.93;35.97;99563.59;5092840;28;19908;-78
2023/09/23 10:10:14;;;;;;;;;;;;;;;33.05;35.51;99566.47;5092673;28;19912;-77
2023/09/23 10:12:47;;;;;;;;;;;;;;;33.13;35.20;99569.16;5074786;28;20312;-75
2023/09/23 10:15:12;;;;;;;;;;;;;;;33.27;35.66;99554.47;5092958;28;19918;-77
2023/09/23 10:17:41;;;;;;;;;;;;;;;33.35;32.95;99559.94;5092748;28;19912;-76
2023/09/23 10:20:15;;;;;;;;;;;;;;;33.46;34.24;99554.91;5092520;28;20416;-77
2023/09/23 10:22:49;;;;;;;;;;;;;;;33.63;35.13;99549.34;5092521;28;19912;-77
2023/09/23 10:25:15;;;;;;;;;;;;;;;33.79;33.86;99538.63;5092449;28;19912;-77
2023/09/23 10:27:56;;;;;;;;;;;;;;;33.96;33.58;99537.72;5092388;28;19912;-76
2023/09/23 10:30:22;;;;;;;;;;;;;;;34.13;33.49;99526.63;5092306;28;19912;-77
2023/09/23 10:32:49;;;;;;;;;;;;;;;34.22;32.85;99521.91;5092769;28;19912;-77
2023/09/23 10:35:21;;;;;;;;;;;;;;;34.40;31.72;99525.31;5091428;28;19912;-77
2023/09/23 10:37:46;;;;;;;;;;;;;;;34.57;31.81;99518.88;5092485;28;19954;-77
2023/09/23 10:40:14;;;;;;;;;;;;;;;34.65;32.23;99517.97;5092561;28;20335;-78
2023/09/23 10:42:41;;;;;;;;;;;;;;;34.82;33.59;99508.75;5074532;28;20389;-77
2023/09/23 10:45:07;;;;;;;;;;;;;;;34.92;32.15;99517.38;5092361;28;20049;-78
2023/09/23 10:47:32;;;;;;;;;;;;;;;35.06;31.15;99505.31;5094517;28;19981;-79
2023/09/23 10:49:58;;;;;;;;;;;;;;;35.18;31.91;99502.56;5092670;28;19969;-76
2023/09/23 10:52:23;;;;;;;;;;;;;;;35.27;32.93;99504.06;5092622;28;19912;-78
2023/09/23 10:54:49;;;;;;;;;;;;;;;35.19;31.44;99502.22;5092678;28;19912;-77
2023/09/23 10:57:14;;;;;;;;;;;;;;;35.26;30.84;99493.41;5074345;28;19912;-79
2023/09/23 10:59:40;;;;;;;;;;;;;;;35.38;29.75;99484.41;5092275;28;19916;-78
2023/09/23 11:02:05;;;;;;;;;;;;;;;35.43;29.67;99484.16;5092667;28;19912;-78
2023/09/23 11:04:31;;;;;;;;;;;;;;;35.56;31.12;99478.31;5092470;28;19912;-77
2023/09/23 11:06:56;;;;;;;;;;;;;;;35.62;29.89;99479.69;5092694;28;19990;-78
2023/09/23 11:09:22;;;;;;;;;;;;;;;35.70;31.25;99477.16;5092261;28;19950;-77
2023/09/23 11:11:47;;;;;;;;;;;;;;;35.77;30.38;99469.94;5092663;28;19991;-77
2023/09/23 11:14:13;;;;;;;;;;;;;;;35.83;28.53;99460.34;5092213;28;20006;-77
2023/09/23 11:16:43;;;;;;;;;;;;;;;35.92;30.37;99465.69;5092162;28;19923;-77
2023/09/23 11:19:08;;;;;;;;;;;;;;;35.98;29.07;99458.78;5092122;28;19920;-77
2023/09/23 11:21:46;;;;;;;;;;;;;;;36.06;31.37;99455.09;5092060;28;19919;-76
2023/09/23 11:24:12;;;;;;;;;;;;;;;36.06;29.90;99449.59;5091650;28;19908;-76
2023/09/23 11:26:40;;;;;;;;;;;;;;;36.16;28.64;99445.53;5091755;28;19913;-77
2023/09/23 11:29:06;;;;;;;;;;;;;;;36.26;29.41;99442.28;5091707;28;20385;-77
2023/09/23 11:31:31;;;;;;;;;;;;;;;36.32;29.69;99443.66;5073680;28;19961;-78
2023/09/23 11:33:57;;;;;;;;;;;;;;;36.29;27.83;99434.16;5091737;28;19997;-77
2023/09/23 11:36:22;;;;;;;;;;;;;;;36.35;29.46;99436.66;5091355;28;20315;-78
2023/09/23 11:38:47;;;;;;;;;;;;;;;36.32;28.65;99429.91;5091578;28;19924;-78
2023/09/23 11:41:13;;;;;;;;;;;;;;;36.33;28.67;99431.50;5091660;28;20400;-77
2023/09/23 11:43:38;;;;;;;;;;;;;;;36.31;29.35;99427.50;5091480;28;20312;-78
2023/09/23 11:46:04;;;;;;;;;;;;;;;36.27;27.16;99421.91;5092138;28;19978;-77
2023/09/23 11:48:29;;;;;;;;;;;;;;;36.23;27.66;99413.53;5095807;28;19978;-78
2023/09/23 11:50:55;;;;;;;;;;;;;;;36.15;28.98;99410.97;5095744;28;20379;-75
2023/09/23 11:53:20;;;;;;;;;;;;;;;36.04;27.70;99407.94;5095766;28;19999;-76
2023/09/23 11:55:45;;;;;;;;;;;;;;;35.91;30.07;99409.94;5095596;28;20010;-77
2023/09/23 11:58:11;;;;;;;;;;;;;;;35.76;29.00;99396.13;5095247;28;19912;-76
2023/09/23 12:00:36;;;;;;;;;;;;;;;35.65;28.73;99401.28;5095239;28;19912;-77
2023/09/23 12:03:02;;;;;;;;;;;;;;;35.49;28.22;99392.16;5077251;28;20324;-76
2023/09/23 12:05:30;;;;;;;;;;;;;;;35.33;28.76;99392.09;5095482;28;19912;-76
2023/09/23 12:07:58;;;;;;;;;;;;;;;35.13;30.45;99391.06;5095418;28;19912;-76
2023/09/23 12:10:24;;;;;;;;;;;;;;;35.02;29.86;99384.44;5095423;28;19954;-77
2023/09/23 12:12:50;;;;;;;;;;;;;;;34.85;29.12;99385.47;5095429;28;19916;-77
2023/09/23 12:15:15;;;;;;;;;;;;;;;34.69;29.68;99382.56;5095650;28;19919;-76
2023/09/23 12:17:40;;;;;;;;;;;;;;;34.59;29.14;99383.03;5095157;28;19919;-77
2023/09/23 12:20:11;;;;;;;;;;;;;;;34.53;29.29;99375.38;5095149;28;19923;-77
2023/09/23 12:22:36;;;;;;;;;;;;;;;34.46;29.22;99373.19;5095038;28;19912;-76
2023/09/23 12:25:01;;;;;;;;;;;;;;;34.42;29.45;99375.81;5094930;28;19909;-76
2023/09/23 12:27:27;;;;;;;;;;;;;;;34.38;29.67;99374.09;5095041;28;20312;-77
2023/09/23 12:29:53;;;;;;;;;;;;;;;34.33;30.89;99366.09;5094840;28;19916;-75
2023/09/23 12:32:18;;;;;;;;;;;;;;;34.26;30.64;99368.56;5076951;28;20342;-76
2023/09/23 12:34:44;;;;;;;;;;;;;;;34.22;30.18;99370.38;5095173;28;20339;-77
2023/09/23 12:37:09;;;;;;;;;;;;;;;34.21;30.34;99357.81;5095751;28;19920;-77
2023/09/23 12:39:35;;;;;;;;;;;;;;;34.19;29.27;99352.66;5095617;28;19917;-78
2023/09/23 12:42:00;;;;;;;;;;;;;;;34.17;28.88;99346.69;5095471;28;19912;-77
2023/09/23 12:44:25;;;;;;;;;;;;;;;34.18;28.50;99345.56;5095121;28;19912;-76